sensor_id;sensor_type;location;lat;lon;timestamp;pressure;altitude;pressure_sealevel;temperature;humidity
74329;BME280;62749;51.982;5.916;2023-03-20T00:02:22;101701.94;;;9.63;80.89
74329;BME280;62749;51.982;5.916;2023-03-20T00:04:52;101699.22;;;9.66;80.45
74329;BME280;62749;51.982;5.916;2023-03-20T00:07:21;101705.38;;;9.66;80.74
74329;BME280;62749;51.982;5.916;2023-03-20T00:09:53;101707.06;;;9.69;80.79
74329;BME280;62749;51.982;5.916;2023-03-20T00:12:24;101705.28;;;9.70;80.93
74329;BME280;62749;51.982;5.916;2023-03-20T00:14:54;101698.03;;;9.79;80.76
74329;BME280;62749;51.982;5.916;2023-03-20T00:17:23;101701.81;;;9.69;80.52
74329;BME280;62749;51.982;5.916;2023-03-20T00:19:53;101705.47;;;9.62;80.74
74329;BME280;62749;51.982;5.916;2023-03-20T00:22:22;101690.59;;;9.59;80.86
74329;BME280;62749;51.982;5.916;2023-03-20T00:24:54;101698.50;;;9.61;81.01
74329;BME280;62749;51.982;5.916;2023-03-20T00:27:24;101695.75;;;9.64;80.87
74329;BME280;62749;51.982;5.916;2023-03-20T00:29:54;101696.59;;;9.66;80.54
74329;BME280;62749;51.982;5.916;2023-03-20T00:32:23;101696.66;;;9.63;80.78
74329;BME280;62749;51.982;5.916;2023-03-20T00:34:52;101695.84;;;9.61;80.90
74329;BME280;62749;51.982;5.916;2023-03-20T00:37:22;101695.84;;;9.61;80.92
74329;BME280;62749;51.982;5.916;2023-03-20T00:39:56;101704.22;;;9.41;81.41
74329;BME280;62749;51.982;5.916;2023-03-20T00:42:25;101704.09;;;9.45;81.37
74329;BME280;62749;51.982;5.916;2023-03-20T00:44:55;101708.53;;;9.43;81.23
74329;BME280;62749;51.982;5.916;2023-03-20T00:47:27;101699.72;;;9.44;81.34
74329;BME280;62749;51.982;5.916;2023-03-20T00:49:57;101695.91;;;9.58;80.52
74329;BME280;62749;51.982;5.916;2023-03-20T00:52:28;101703.00;;;9.56;79.85
74329;BME280;62749;51.982;5.916;2023-03-20T00:55:00;101695.13;;;9.54;79.91
74329;BME280;62749;51.982;5.916;2023-03-20T00:57:37;101687.09;;;9.59;79.82
74329;BME280;62749;51.982;5.916;2023-03-20T01:00:23;101682.84;;;9.53;79.88
74329;BME280;62749;51.982;5.916;2023-03-20T01:02:56;101678.41;;;9.54;79.96
74329;BME280;62749;51.982;5.916;2023-03-20T01:05:26;101677.34;;;9.62;79.58
74329;BME280;62749;51.982;5.916;2023-03-20T01:08:13;101668.81;;;9.49;79.99
74329;BME280;62749;51.982;5.916;2023-03-20T01:10:48;101677.56;;;9.51;80.42
74329;BME280;62749;51.982;5.916;2023-03-20T01:13:21;101687.84;;;9.64;79.62
74329;BME280;62749;51.982;5.916;2023-03-20T01:15:53;101713.47;;;9.59;79.74
74329;BME280;62749;51.982;5.916;2023-03-20T01:18:25;101719.75;;;9.53;80.09
74329;BME280;62749;51.982;5.916;2023-03-20T01:20:54;101728.91;;;9.36;80.82
74329;BME280;62749;51.982;5.916;2023-03-20T01:23:24;101728.91;;;9.36;81.14
74329;BME280;62749;51.982;5.916;2023-03-20T01:25:56;101740.41;;;9.32;81.41
74329;BME280;62749;51.982;5.916;2023-03-20T01:28:28;101739.63;;;9.29;81.72
74329;BME280;62749;51.982;5.916;2023-03-20T01:30:59;101741.47;;;9.25;82.02
74329;BME280;62749;51.982;5.916;2023-03-20T01:33:29;101725.66;;;9.25;81.92
74329;BME280;62749;51.982;5.916;2023-03-20T01:35:58;101718.75;;;9.18;81.84
74329;BME280;62749;51.982;5.916;2023-03-20T01:38:28;101719.53;;;9.23;81.34
74329;BME280;62749;51.982;5.916;2023-03-20T01:41:04;101723.97;;;9.21;81.32
74329;BME280;62749;51.982;5.916;2023-03-20T01:43:35;101729.06;;;9.29;81.07
74329;BME280;62749;51.982;5.916;2023-03-20T01:46:14;101740.72;;;9.18;81.20
74329;BME280;62749;51.982;5.916;2023-03-20T01:51:55;101729.41;;;9.13;80.76
74329;BME280;62749;51.982;5.916;2023-03-20T01:54:28;101714.38;;;9.18;80.53
74329;BME280;62749;51.982;5.916;2023-03-20T01:57:06;101725.91;;;9.11;80.48
74329;BME280;62749;51.982;5.916;2023-03-20T01:59:42;101732.88;;;9.15;80.80
74329;BME280;62749;51.982;5.916;2023-03-20T02:02:18;101737.41;;;9.09;80.35
74329;BME280;62749;51.982;5.916;2023-03-20T02:04:54;101731.97;;;9.16;80.68
74329;BME280;62749;51.982;5.916;2023-03-20T02:07:24;101729.41;;;9.13;80.87
74329;BME280;62749;51.982;5.916;2023-03-20T02:09:54;101722.28;;;9.18;80.84
74329;BME280;62749;51.982;5.916;2023-03-20T02:12:27;101727.75;;;9.08;80.55
74329;BME280;62749;51.982;5.916;2023-03-20T02:14:57;101724.06;;;9.16;80.03
74329;BME280;62749;51.982;5.916;2023-03-20T02:17:27;101713.53;;;9.16;79.98
74329;BME280;62749;51.982;5.916;2023-03-20T02:20:06;101720.53;;;9.17;79.97
74329;BME280;62749;51.982;5.916;2023-03-20T02:23:07;101707.22;;;9.24;79.59
74329;BME280;62749;51.982;5.916;2023-03-20T02:26:01;101714.16;;;9.28;78.69
74329;BME280;62749;51.982;5.916;2023-03-20T02:32:14;101704.78;;;9.14;78.09
74329;BME280;62749;51.982;5.916;2023-03-20T02:41:08;101697.53;;;9.24;75.68
74329;BME280;62749;51.982;5.916;2023-03-20T02:43:49;101698.50;;;9.21;73.53
74329;BME280;62749;51.982;5.916;2023-03-20T02:46:31;101704.50;;;9.27;72.67
74329;BME280;62749;51.982;5.916;2023-03-20T02:49:13;101687.78;;;9.28;71.41
74329;BME280;62749;51.982;5.916;2023-03-20T02:51:55;101693.34;;;9.15;71.17
74329;BME280;62749;51.982;5.916;2023-03-20T02:54:37;101686.13;;;9.24;70.92
74329;BME280;62749;51.982;5.916;2023-03-20T02:57:16;101700.19;;;9.24;71.31
74329;BME280;62749;51.982;5.916;2023-03-20T02:59:57;101697.44;;;9.29;69.62
74329;BME280;62749;51.982;5.916;2023-03-20T03:02:34;101707.22;;;9.24;70.00
74329;BME280;62749;51.982;5.916;2023-03-20T03:05:12;101708.88;;;9.28;69.75
74329;BME280;62749;51.982;5.916;2023-03-20T03:10:50;101701.84;;;9.28;70.03
74329;BME280;62749;51.982;5.916;2023-03-20T03:13:26;101693.22;;;9.21;70.50
74329;BME280;62749;51.982;5.916;2023-03-20T03:16:03;101691.31;;;9.28;70.99
74329;BME280;62749;51.982;5.916;2023-03-20T03:18:36;101699.19;;;9.30;71.20
74329;BME280;62749;51.982;5.916;2023-03-20T03:21:09;101702.03;;;9.20;72.17
74329;BME280;62749;51.982;5.916;2023-03-20T03:23:43;101692.31;;;9.23;72.52
74329;BME280;62749;51.982;5.916;2023-03-20T03:26:20;101683.69;;;9.14;73.15
74329;BME280;62749;51.982;5.916;2023-03-20T03:28:54;101674.88;;;9.15;73.75
74329;BME280;62749;51.982;5.916;2023-03-20T03:31:26;101668.53;;;9.24;73.28
74329;BME280;62749;51.982;5.916;2023-03-20T03:33:58;101645.75;;;9.21;73.80
74329;BME280;62749;51.982;5.916;2023-03-20T03:36:37;101641.38;;;9.20;73.39
74329;BME280;62749;51.982;5.916;2023-03-20T03:39:19;101634.47;;;9.15;73.79
74329;BME280;62749;51.982;5.916;2023-03-20T03:42:02;101635.56;;;9.06;74.19
74329;BME280;62749;51.982;5.916;2023-03-20T03:44:40;101631.28;;;9.00;74.16
74329;BME280;62749;51.982;5.916;2023-03-20T03:47:17;101632.94;;;9.04;74.56
74329;BME280;62749;51.982;5.916;2023-03-20T03:49:52;101626.19;;;8.91;74.90
74329;BME280;62749;51.982;5.916;2023-03-20T03:52:28;101639.19;;;9.00;75.12
74329;BME280;62749;51.982;5.916;2023-03-20T03:55:03;101642.56;;;9.05;74.07
74329;BME280;62749;51.982;5.916;2023-03-20T03:57:43;101648.63;;;9.11;73.96
74329;BME280;62749;51.982;5.916;2023-03-20T04:00:19;101638.88;;;9.14;74.08
74329;BME280;62749;51.982;5.916;2023-03-20T04:02:53;101646.16;;;9.03;74.75
74329;BME280;62749;51.982;5.916;2023-03-20T04:05:26;101638.88;;;9.14;74.41
74329;BME280;62749;51.982;5.916;2023-03-20T04:08:01;101646.22;;;9.00;74.16
74329;BME280;62749;51.982;5.916;2023-03-20T04:10:31;101634.19;;;8.86;74.66
74329;BME280;62749;51.982;5.916;2023-03-20T04:13:03;101635.94;;;8.87;75.05
74329;BME280;62749;51.982;5.916;2023-03-20T04:15:32;101638.72;;;8.80;75.07
74329;BME280;62749;51.982;5.916;2023-03-20T04:18:02;101623.00;;;8.77;75.25
74329;BME280;62749;51.982;5.916;2023-03-20T04:20:31;101630.78;;;8.83;74.99
74329;BME280;62749;51.982;5.916;2023-03-20T04:23:00;101630.81;;;8.81;75.16
74329;BME280;62749;51.982;5.916;2023-03-20T04:25:31;101622.34;;;8.67;75.38
74329;BME280;62749;51.982;5.916;2023-03-20T04:28:03;101619.53;;;8.73;75.43
74329;BME280;62749;51.982;5.916;2023-03-20T04:30:33;101620.53;;;8.69;75.84
74329;BME280;62749;51.982;5.916;2023-03-20T04:33:03;101629.13;;;8.77;75.69
74329;BME280;62749;51.982;5.916;2023-03-20T04:35:32;101612.63;;;8.69;76.05
74329;BME280;62749;51.982;5.916;2023-03-20T04:38:02;101617.22;;;8.59;76.60
74329;BME280;62749;51.982;5.916;2023-03-20T04:40:31;101628.75;;;8.53;77.61
74329;BME280;62749;51.982;5.916;2023-03-20T04:43:03;101628.91;;;8.44;77.56
74329;BME280;62749;51.982;5.916;2023-03-20T04:45:32;101623.63;;;8.44;77.49
74329;BME280;62749;51.982;5.916;2023-03-20T04:48:02;101622.00;;;8.38;78.02
74329;BME280;62749;51.982;5.916;2023-03-20T04:50:32;101613.16;;;8.39;77.87
74329;BME280;62749;51.982;5.916;2023-03-20T04:53:01;101614.06;;;8.40;76.99
74329;BME280;62749;51.982;5.916;2023-03-20T04:55:31;101611.25;;;8.49;76.75
74329;BME280;62749;51.982;5.916;2023-03-20T04:58:03;101615.63;;;8.50;76.62
74329;BME280;62749;51.982;5.916;2023-03-20T05:00:32;101622.69;;;8.48;76.92
74329;BME280;62749;51.982;5.916;2023-03-20T05:03:02;101627.97;;;8.48;76.17
74329;BME280;62749;51.982;5.916;2023-03-20T05:05:32;101621.81;;;8.46;76.81
74329;BME280;62749;51.982;5.916;2023-03-20T05:08:04;101631.34;;;8.55;76.13
74329;BME280;62749;51.982;5.916;2023-03-20T05:10:33;101642.81;;;8.52;75.99
74329;BME280;62749;51.982;5.916;2023-03-20T05:13:05;101632.31;;;8.51;75.76
74329;BME280;62749;51.982;5.916;2023-03-20T05:15:35;101621.00;;;8.42;75.81
74329;BME280;62749;51.982;5.916;2023-03-20T05:18:04;101616.88;;;8.31;75.91
74329;BME280;62749;51.982;5.916;2023-03-20T05:20:33;101612.66;;;8.22;76.30
74329;BME280;62749;51.982;5.916;2023-03-20T05:23:03;101614.16;;;8.34;75.93
74329;BME280;62749;51.982;5.916;2023-03-20T05:25:32;101618.63;;;8.32;75.57
74329;BME280;62749;51.982;5.916;2023-03-20T05:28:28;101614.28;;;8.27;75.72
74329;BME280;62749;51.982;5.916;2023-03-20T05:30:58;101607.19;;;8.31;75.48
74329;BME280;62749;51.982;5.916;2023-03-20T05:33:27;101618.44;;;8.41;75.45
74329;BME280;62749;51.982;5.916;2023-03-20T05:35:57;101614.25;;;8.31;75.01
74329;BME280;62749;51.982;5.916;2023-03-20T05:38:26;101612.75;;;8.17;75.13
74329;BME280;62749;51.982;5.916;2023-03-20T05:40:56;101612.66;;;8.22;75.87
74329;BME280;62749;51.982;5.916;2023-03-20T05:43:29;101616.94;;;8.27;75.19
74329;BME280;62749;51.982;5.916;2023-03-20T05:45:58;101624.69;;;8.35;75.20
74329;BME280;62749;51.982;5.916;2023-03-20T05:48:27;101614.09;;;8.37;74.68
74329;BME280;62749;51.982;5.916;2023-03-20T05:50:57;101634.22;;;8.39;75.11
74329;BME280;62749;51.982;5.916;2023-03-20T05:53:26;101634.19;;;8.42;74.60
74329;BME280;62749;51.982;5.916;2023-03-20T05:55:56;101635.88;;;8.47;74.87
74329;BME280;62749;51.982;5.916;2023-03-20T05:58:25;101632.34;;;8.46;75.27
74329;BME280;62749;51.982;5.916;2023-03-20T06:00:58;101629.59;;;8.55;73.85
74329;BME280;62749;51.982;5.916;2023-03-20T06:03:27;101631.69;;;8.35;74.67
74329;BME280;62749;51.982;5.916;2023-03-20T06:05:57;101639.59;;;8.35;75.29
74329;BME280;62749;51.982;5.916;2023-03-20T06:08:26;101643.97;;;8.37;74.42
74329;BME280;62749;51.982;5.916;2023-03-20T06:10:55;101641.28;;;8.39;74.49
74329;BME280;62749;51.982;5.916;2023-03-20T06:13:25;101646.34;;;8.51;73.91
74329;BME280;62749;51.982;5.916;2023-03-20T06:15:54;101652.44;;;8.53;73.66
74329;BME280;62749;51.982;5.916;2023-03-20T06:18:26;101641.78;;;8.59;73.69
74329;BME280;62749;51.982;5.916;2023-03-20T06:20:56;101649.78;;;8.55;73.87
74329;BME280;62749;51.982;5.916;2023-03-20T06:23:27;101643.66;;;8.54;73.71
74329;BME280;62749;51.982;5.916;2023-03-20T06:25:56;101649.84;;;8.52;73.48
74329;BME280;62749;51.982;5.916;2023-03-20T06:28:26;101650.81;;;8.44;74.09
74329;BME280;62749;51.982;5.916;2023-03-20T06:30:55;101653.47;;;8.44;74.62
74329;BME280;62749;51.982;5.916;2023-03-20T06:33:27;101653.44;;;8.48;74.43
74329;BME280;62749;51.982;5.916;2023-03-20T06:35:56;101648.91;;;8.54;74.02
74329;BME280;62749;51.982;5.916;2023-03-20T06:38:26;101654.19;;;8.54;74.35
74329;BME280;62749;51.982;5.916;2023-03-20T06:40:56;101649.78;;;8.55;74.33
74329;BME280;62749;51.982;5.916;2023-03-20T06:43:25;101649.88;;;8.50;74.12
74329;BME280;62749;51.982;5.916;2023-03-20T06:45:54;101651.56;;;8.54;74.04
74329;BME280;62749;51.982;5.916;2023-03-20T06:48:27;101647.09;;;8.58;74.11
74329;BME280;62749;51.982;5.916;2023-03-20T06:50:56;101645.44;;;8.52;75.25
74329;BME280;62749;51.982;5.916;2023-03-20T06:53:26;101654.97;;;8.58;74.01
74329;BME280;62749;51.982;5.916;2023-03-20T06:55:55;101655.72;;;8.65;74.23
74329;BME280;62749;51.982;5.916;2023-03-20T06:58:24;101661.09;;;8.60;74.12
74329;BME280;62749;51.982;5.916;2023-03-20T07:00:54;101659.56;;;8.48;74.36
74329;BME280;62749;51.982;5.916;2023-03-20T07:03:23;101673.47;;;8.55;74.92
74329;BME280;62749;51.982;5.916;2023-03-20T07:05:56;101669.84;;;8.60;74.66
74329;BME280;62749;51.982;5.916;2023-03-20T07:08:25;101676.91;;;8.58;74.33
74329;BME280;62749;51.982;5.916;2023-03-20T07:10:55;101674.38;;;8.54;74.05
74329;BME280;62749;51.982;5.916;2023-03-20T07:13:25;101678.81;;;8.52;73.98
74329;BME280;62749;51.982;5.916;2023-03-20T07:15:55;101676.44;;;8.35;74.73
74329;BME280;62749;51.982;5.916;2023-03-20T07:18:24;101673.00;;;8.31;75.67
74329;BME280;62749;51.982;5.916;2023-03-20T07:20:59;101676.25;;;8.49;74.84
74329;BME280;62749;51.982;5.916;2023-03-20T07:23:30;101674.44;;;8.51;74.37
74329;BME280;62749;51.982;5.916;2023-03-20T07:26:00;101665.63;;;8.53;74.18
74329;BME280;62749;51.982;5.916;2023-03-20T07:28:29;101670.00;;;8.54;74.15
74329;BME280;62749;51.982;5.916;2023-03-20T07:30:58;101672.72;;;8.50;73.96
74329;BME280;62749;51.982;5.916;2023-03-20T07:33:28;101667.50;;;8.45;74.94
74329;BME280;62749;51.982;5.916;2023-03-20T07:36:00;101671.56;;;8.63;74.49
74329;BME280;62749;51.982;5.916;2023-03-20T07:38:29;101659.50;;;8.51;74.80
74329;BME280;62749;51.982;5.916;2023-03-20T07:40:59;101675.25;;;8.53;73.94
74329;BME280;62749;51.982;5.916;2023-03-20T07:43:28;101673.59;;;8.47;74.56
74329;BME280;62749;51.982;5.916;2023-03-20T07:46:01;101681.50;;;8.49;74.39
74329;BME280;62749;51.982;5.916;2023-03-20T07:48:30;101684.09;;;8.50;74.68
74329;BME280;62749;51.982;5.916;2023-03-20T07:51:03;101678.69;;;8.58;74.55
74329;BME280;62749;51.982;5.916;2023-03-20T07:53:32;101679.41;;;8.66;73.58
74329;BME280;62749;51.982;5.916;2023-03-20T07:56:03;101681.03;;;8.72;74.22
74329;BME280;62749;51.982;5.916;2023-03-20T07:58:32;101673.22;;;8.69;73.19
74329;BME280;62749;51.982;5.916;2023-03-20T08:01:02;101678.59;;;8.63;73.72
74329;BME280;62749;51.982;5.916;2023-03-20T08:03:32;101684.00;;;8.56;73.51
74329;BME280;62749;51.982;5.916;2023-03-20T08:06:04;101679.47;;;8.63;73.88
74329;BME280;62749;51.982;5.916;2023-03-20T08:08:35;101690.69;;;8.73;73.47
74329;BME280;62749;51.982;5.916;2023-03-20T08:11:04;101677.59;;;8.68;73.13
74329;BME280;62749;51.982;5.916;2023-03-20T08:13:34;101681.28;;;8.59;73.65
74329;BME280;62749;51.982;5.916;2023-03-20T08:16:04;101673.22;;;8.69;73.51
74329;BME280;62749;51.982;5.916;2023-03-20T08:18:33;101675.00;;;8.67;73.18
74329;BME280;62749;51.982;5.916;2023-03-20T08:21:06;101676.16;;;8.53;73.56
74329;BME280;62749;51.982;5.916;2023-03-20T08:23:35;101672.63;;;8.54;73.06
74329;BME280;62749;51.982;5.916;2023-03-20T08:26:05;101677.75;;;8.60;73.82
74329;BME280;62749;51.982;5.916;2023-03-20T08:28:35;101662.78;;;8.64;73.57
74329;BME280;62749;51.982;5.916;2023-03-20T08:31:07;101671.47;;;8.68;72.97
74329;BME280;62749;51.982;5.916;2023-03-20T08:33:37;101666.38;;;8.58;72.91
74329;BME280;62749;51.982;5.916;2023-03-20T08:36:09;101675.88;;;8.67;72.66
74329;BME280;62749;51.982;5.916;2023-03-20T08:38:40;101679.38;;;8.68;72.60
74329;BME280;62749;51.982;5.916;2023-03-20T08:41:10;101671.34;;;8.75;73.23
74329;BME280;62749;51.982;5.916;2023-03-20T08:43:40;101673.72;;;8.88;72.63
74329;BME280;62749;51.982;5.916;2023-03-20T08:46:09;101676.25;;;8.93;71.97
74329;BME280;62749;51.982;5.916;2023-03-20T08:48:39;101659.59;;;8.90;71.76
74329;BME280;62749;51.982;5.916;2023-03-20T08:51:11;101665.75;;;8.89;71.54
74329;BME280;62749;51.982;5.916;2023-03-20T08:53:41;101670.06;;;8.94;71.30
74329;BME280;62749;51.982;5.916;2023-03-20T08:56:11;101667.50;;;8.90;71.89
74329;BME280;62749;51.982;5.916;2023-03-20T08:58:40;101668.53;;;8.83;71.23
74329;BME280;62749;51.982;5.916;2023-03-20T09:01:10;101664.19;;;8.81;72.23
74329;BME280;62749;51.982;5.916;2023-03-20T09:03:40;101658.91;;;8.82;71.20
74329;BME280;62749;51.982;5.916;2023-03-20T09:06:12;101665.66;;;8.94;70.84
74329;BME280;62749;51.982;5.916;2023-03-20T09:08:42;101667.38;;;8.97;71.08
74329;BME280;62749;51.982;5.916;2023-03-20T09:11:13;101665.28;;;9.13;70.10
74329;BME280;62749;51.982;5.916;2023-03-20T09:13:43;101665.38;;;9.08;70.41
74329;BME280;62749;51.982;5.916;2023-03-20T09:16:12;101664.66;;;9.01;69.50
74329;BME280;62749;51.982;5.916;2023-03-20T09:18:42;101661.28;;;8.95;69.62
74329;BME280;62749;51.982;5.916;2023-03-20T09:21:14;101666.28;;;9.07;69.61
74329;BME280;62749;51.982;5.916;2023-03-20T09:23:43;101664.75;;;8.97;70.02
74329;BME280;62749;51.982;5.916;2023-03-20T09:26:12;101663.53;;;9.12;69.96
74329;BME280;62749;51.982;5.916;2023-03-20T09:28:42;101670.28;;;9.24;69.59
74329;BME280;62749;51.982;5.916;2023-03-20T09:31:11;101664.09;;;9.26;68.85
74329;BME280;62749;51.982;5.916;2023-03-20T09:33:41;101666.84;;;9.21;68.34
74329;BME280;62749;51.982;5.916;2023-03-20T09:36:11;101671.75;;;9.39;68.25
74329;BME280;62749;51.982;5.916;2023-03-20T09:38:43;101678.59;;;9.46;68.33
74329;BME280;62749;51.982;5.916;2023-03-20T09:41:19;101674.38;;;9.39;68.07
74329;BME280;62749;51.982;5.916;2023-03-20T09:44:01;101674.94;;;9.51;67.47
74329;BME280;62749;51.982;5.916;2023-03-20T09:46:52;101681.06;;;9.54;67.74
74329;BME280;62749;51.982;5.916;2023-03-20T09:49:39;101685.44;;;9.55;68.13
74329;BME280;62749;51.982;5.916;2023-03-20T09:52:19;101689.84;;;9.54;67.59
74329;BME280;62749;51.982;5.916;2023-03-20T09:54:57;101698.22;;;9.34;68.07
74329;BME280;62749;51.982;5.916;2023-03-20T09:57:33;101700.28;;;9.19;68.94
74329;BME280;62749;51.982;5.916;2023-03-20T10:00:12;101698.50;;;9.20;70.43
74329;BME280;62749;51.982;5.916;2023-03-20T10:02:49;101702.94;;;9.18;70.74
74329;BME280;62749;51.982;5.916;2023-03-20T10:05:25;101697.94;;;9.05;72.42
74329;BME280;62749;51.982;5.916;2023-03-20T10:07:58;101710.69;;;9.26;73.21
74329;BME280;62749;51.982;5.916;2023-03-20T10:10:41;101693.13;;;9.25;74.09
74329;BME280;62749;51.982;5.916;2023-03-20T10:13:41;101705.97;;;9.40;74.60
74329;BME280;62749;51.982;5.916;2023-03-20T10:16:25;101692.22;;;9.27;74.36
74329;BME280;62749;51.982;5.916;2023-03-20T10:19:06;101694.00;;;9.25;74.79
74329;BME280;62749;51.982;5.916;2023-03-20T10:21:59;101693.22;;;9.21;76.40
74329;BME280;62749;51.982;5.916;2023-03-20T10:24:35;101681.72;;;9.24;76.65
74329;BME280;62749;51.982;5.916;2023-03-20T10:27:19;101686.72;;;9.36;75.22
74329;BME280;62749;51.982;5.916;2023-03-20T10:30:03;101682.00;;;9.51;76.45
74329;BME280;62749;51.982;5.916;2023-03-20T10:32:40;101682.00;;;9.51;73.71
74329;BME280;62749;51.982;5.916;2023-03-20T10:35:22;101672.47;;;9.45;75.17
74329;BME280;62749;51.982;5.916;2023-03-20T10:38:10;101674.25;;;9.43;73.11
74329;BME280;62749;51.982;5.916;2023-03-20T10:40:42;101675.16;;;9.42;75.77
74329;BME280;62749;51.982;5.916;2023-03-20T10:43:32;101677.38;;;9.61;73.98
74329;BME280;62749;51.982;5.916;2023-03-20T10:46:09;101672.78;;;9.69;73.04
74329;BME280;62749;51.982;5.916;2023-03-20T10:48:44;101678.19;;;9.63;73.01
74329;BME280;62749;51.982;5.916;2023-03-20T10:51:19;101675.47;;;9.66;73.14
74329;BME280;62749;51.982;5.916;2023-03-20T10:53:54;101673.75;;;9.65;71.37
74329;BME280;62749;51.982;5.916;2023-03-20T10:56:43;101673.94;;;9.57;72.22
74329;BME280;62749;51.982;5.916;2023-03-20T10:59:22;101676.84;;;9.82;74.50
74329;BME280;62749;51.982;5.916;2023-03-20T11:01:52;101665.22;;;9.90;71.84
74329;BME280;62749;51.982;5.916;2023-03-20T11:04:22;101676.09;;;9.77;71.35
74329;BME280;62749;51.982;5.916;2023-03-20T11:06:57;101670.91;;;9.74;69.35
74329;BME280;62749;51.982;5.916;2023-03-20T11:09:29;101668.34;;;9.71;69.00
74329;BME280;62749;51.982;5.916;2023-03-20T11:12:01;101661.78;;;9.50;72.47
74329;BME280;62749;51.982;5.916;2023-03-20T11:14:36;101673.13;;;9.54;72.65
74329;BME280;62749;51.982;5.916;2023-03-20T11:17:06;101662.88;;;9.41;74.28
74329;BME280;62749;51.982;5.916;2023-03-20T11:19:46;101661.72;;;9.53;73.76
74329;BME280;62749;51.982;5.916;2023-03-20T11:22:24;101665.22;;;9.54;74.48
74329;BME280;62749;51.982;5.916;2023-03-20T11:24:57;101663.13;;;9.68;73.44
74329;BME280;62749;51.982;5.916;2023-03-20T11:27:29;101663.41;;;9.56;73.87
74329;BME280;62749;51.982;5.916;2023-03-20T11:30:06;101663.34;;;9.59;74.25
74329;BME280;62749;51.982;5.916;2023-03-20T11:32:46;101658.69;;;9.68;74.48
74329;BME280;62749;51.982;5.916;2023-03-20T11:35:28;101651.03;;;9.59;74.40
74329;BME280;62749;51.982;5.916;2023-03-20T11:38:11;101646.81;;;9.52;73.81
74329;BME280;62749;51.982;5.916;2023-03-20T11:40:41;101648.25;;;9.65;74.54
74329;BME280;62749;51.982;5.916;2023-03-20T11:43:15;101644.22;;;9.87;74.22
74329;BME280;62749;51.982;5.916;2023-03-20T11:45:54;101640.41;;;9.97;72.01
74329;BME280;62749;51.982;5.916;2023-03-20T11:48:34;101632.97;;;9.78;72.26
74329;BME280;62749;51.982;5.916;2023-03-20T11:51:07;101629.59;;;9.73;70.48
74329;BME280;62749;51.982;5.916;2023-03-20T11:53:40;101638.28;;;9.77;71.95
74329;BME280;62749;51.982;5.916;2023-03-20T11:56:13;101639.59;;;9.95;70.85
74329;BME280;62749;51.982;5.916;2023-03-20T11:58:55;101624.91;;;9.85;69.31
74329;BME280;62749;51.982;5.916;2023-03-20T12:01:37;101638.94;;;9.87;70.49
74329;BME280;62749;51.982;5.916;2023-03-20T12:04:15;101639.06;;;9.80;71.19
74329;BME280;62749;51.982;5.916;2023-03-20T12:06:50;101638.75;;;9.93;70.56
74329;BME280;62749;51.982;5.916;2023-03-20T12:09:38;101633.41;;;9.96;71.95
74329;BME280;62749;51.982;5.916;2023-03-20T12:12:18;101631.41;;;10.06;71.85
74329;BME280;62749;51.982;5.916;2023-03-20T12:14:58;101629.69;;;10.03;72.57
74329;BME280;62749;51.982;5.916;2023-03-20T12:17:45;101628.19;;;9.93;72.13
74329;BME280;62749;51.982;5.916;2023-03-20T12:20:28;101630.50;;;10.07;72.34
74329;BME280;62749;51.982;5.916;2023-03-20T12:23:10;101622.91;;;9.93;72.35
74329;BME280;62749;51.982;5.916;2023-03-20T12:25:48;101623.81;;;9.92;71.79
74329;BME280;62749;51.982;5.916;2023-03-20T12:28:25;101620.97;;;9.65;71.70
74329;BME280;62749;51.982;5.916;2023-03-20T12:31:04;101615.09;;;9.55;74.45
74329;BME280;62749;51.982;5.916;2023-03-20T12:33:50;101622.19;;;9.51;73.42
74329;BME280;62749;51.982;5.916;2023-03-20T12:36:28;101614.13;;;9.58;75.16
74329;BME280;62749;51.982;5.916;2023-03-20T12:39:01;101611.94;;;9.39;74.49
74329;BME280;62749;51.982;5.916;2023-03-20T12:41:40;101612.69;;;9.44;76.92
74329;BME280;62749;51.982;5.916;2023-03-20T12:44:28;101597.59;;;9.51;76.08
74329;BME280;62749;51.982;5.916;2023-03-20T12:47:26;101596.50;;;9.60;76.19
74329;BME280;62749;51.982;5.916;2023-03-20T12:50:15;101592.84;;;9.64;76.65
74329;BME280;62749;51.982;5.916;2023-03-20T12:52:59;101595.50;;;9.64;76.56
74329;BME280;62749;51.982;5.916;2023-03-20T12:55:46;101591.09;;;9.64;75.42
74329;BME280;62749;51.982;5.916;2023-03-20T12:58:28;101589.44;;;9.60;76.21
74329;BME280;62749;51.982;5.916;2023-03-20T13:01:08;101585.50;;;9.42;78.36
74329;BME280;62749;51.982;5.916;2023-03-20T13:04:09;101583.06;;;9.69;77.58
74329;BME280;62749;51.982;5.916;2023-03-20T13:06:50;101584.88;;;9.67;77.43
74329;BME280;62749;51.982;5.916;2023-03-20T13:09:46;101579.47;;;9.73;77.08
74329;BME280;62749;51.982;5.916;2023-03-20T13:12:34;101578.38;;;9.80;78.53
74329;BME280;62749;51.982;5.916;2023-03-20T13:15:18;101573.38;;;9.70;78.33
74329;BME280;62749;51.982;5.916;2023-03-20T13:17:57;101560.22;;;9.68;77.95
74329;BME280;62749;51.982;5.916;2023-03-20T13:20:31;101556.41;;;9.80;78.00
74329;BME280;62749;51.982;5.916;2023-03-20T13:23:18;101563.56;;;9.75;77.43
74329;BME280;62749;51.982;5.916;2023-03-20T13:26:00;101560.88;;;9.78;79.02
74329;BME280;62749;51.982;5.916;2023-03-20T13:28:37;101562.72;;;9.74;77.55
74329;BME280;62749;51.982;5.916;2023-03-20T13:31:22;101563.44;;;9.79;79.85
74329;BME280;62749;51.982;5.916;2023-03-20T13:34:01;101563.13;;;9.92;79.50
74329;BME280;62749;51.982;5.916;2023-03-20T13:36:47;101561.47;;;9.88;78.00
74329;BME280;62749;51.982;5.916;2023-03-20T13:39:27;101561.63;;;9.81;79.65
74329;BME280;62749;51.982;5.916;2023-03-20T13:42:00;101558.03;;;9.86;79.37
74329;BME280;62749;51.982;5.916;2023-03-20T13:44:40;101559.91;;;9.80;79.14
74329;BME280;62749;51.982;5.916;2023-03-20T13:47:16;101559.16;;;9.75;79.16
74329;BME280;62749;51.982;5.916;2023-03-20T13:49:56;101561.41;;;9.56;79.59
74329;BME280;62749;51.982;5.916;2023-03-20T13:52:31;101548.25;;;9.55;79.89
74329;BME280;62749;51.982;5.916;2023-03-20T13:55:18;101538.66;;;9.52;80.29